Time;durP1;ratioP1;P1;durP2;ratioP2;P2;SDS_P1;SDS_P2;PMS_P1;PMS_P2;Temp;Humidity;BMP_temperature;BMP_pressure;BME280_temperature;BME280_humidity;BME280_pressure;Samples;Min_cycle;Max_cycle;Signal;HPM_P1;HPM_P2
2023/02/17 00:00:11;;;;;;;55.10;26.10;;;;;;;4.86;56.97;95540.94;4211084;28;20048;-56
2023/02/17 00:02:14;;;;;;;51.90;28.38;;;;;;;4.75;56.92;95542.56;4208049;28;20040;-50
2023/02/17 00:04:16;;;;;;;56.40;27.95;;;;;;;4.67;57.15;95543.09;4211983;28;20059;-56
2023/02/17 00:06:23;;;;;;;54.95;27.05;;;;;;;4.74;57.87;95536.56;4208624;28;20059;-50
2023/02/17 00:08:24;;;;;;;48.72;25.58;;;;;;;4.80;56.64;95543.94;4206663;28;20048;-54
2023/02/17 00:10:26;;;;;;;54.30;27.48;;;;;;;4.75;57.32;95535.59;4209296;28;20447;-54
2023/02/17 00:12:27;;;;;;;47.28;25.48;;;;;;;4.69;57.16;95541.25;4208837;28;20090;-52
2023/02/17 00:14:29;;;;;;;46.28;24.63;;;;;;;4.50;57.60;95542.44;4207117;28;20055;-51
2023/02/17 00:16:31;;;;;;;51.03;25.65;;;;;;;4.44;57.94;95540.25;4205665;28;20511;-53
2023/02/17 00:18:35;;;;;;;46.10;24.58;;;;;;;4.43;57.70;95532.56;4205971;28;20414;-52
2023/02/17 00:20:37;;;;;;;47.42;25.15;;;;;;;4.51;57.87;95533.72;4205785;28;20440;-52
2023/02/17 00:22:38;;;;;;;49.38;25.75;;;;;;;4.54;57.72;95535.28;4205517;28;20051;-56
2023/02/17 00:24:40;;;;;;;47.97;26.02;;;;;;;4.62;56.88;95529.59;4206723;28;20048;-56
2023/02/17 00:26:42;;;;;;;47.90;25.88;;;;;;;4.62;57.58;95537.38;4199728;28;20058;-55
2023/02/17 00:28:44;;;;;;;53.22;27.40;;;;;;;4.64;57.12;95532.91;4210516;28;20130;-54
2023/02/17 00:30:46;;;;;;;55.83;27.58;;;;;;;4.76;56.75;95523.47;4195285;28;20049;-54
2023/02/17 00:32:48;;;;;;;41.13;24.08;;;;;;;4.79;56.95;95521.50;4196672;28;20043;-54
2023/02/17 00:34:51;;;;;;;49.08;24.33;;;;;;;4.72;56.13;95512.47;4209789;28;20076;-54
2023/02/17 00:36:53;;;;;;;46.10;22.58;;;;;;;4.65;56.90;95524.19;4209839;28;20076;-52
2023/02/17 00:38:56;;;;;;;47.85;21.73;;;;;;;4.51;57.00;95517.31;4206991;28;20056;-54
2023/02/17 00:40:57;;;;;;;36.63;20.67;;;;;;;4.51;56.71;95512.94;4198037;28;20055;-52
2023/02/17 00:42:59;;;;;;;42.60;21.02;;;;;;;4.60;56.69;95511.50;4209571;28;20648;-53
2023/02/17 00:45:01;;;;;;;44.13;22.73;;;;;;;4.66;55.96;95512.88;4210925;28;20048;-52
2023/02/17 00:47:05;;;;;;;33.22;19.65;;;;;;;4.74;55.59;95500.22;4207126;28;20367;-55
2023/02/17 00:49:07;;;;;;;32.38;18.55;;;;;;;4.79;55.19;95498.13;4208973;28;20184;-53
2023/02/17 00:51:14;;;;;;;36.40;20.00;;;;;;;4.84;54.83;95495.22;4203396;28;20072;-55
2023/02/17 00:53:16;;;;;;;35.85;19.67;;;;;;;4.76;54.78;95503.53;4208054;28;20462;-54
2023/02/17 00:55:17;;;;;;;43.40;22.25;;;;;;;4.28;56.46;95506.72;4206313;28;20121;-53
2023/02/17 00:57:19;;;;;;;43.88;22.52;;;;;;;3.57;58.51;95513.00;4197428;28;20048;-57
2023/02/17 00:59:21;;;;;;;46.33;23.38;;;;;;;3.43;59.75;95521.63;4198964;28;20057;-56
2023/02/17 01:01:22;;;;;;;52.33;24.52;;;;;;;3.30;59.74;95517.31;4196828;28;20091;-57
2023/02/17 01:03:25;;;;;;;47.58;23.73;;;;;;;3.17;60.48;95512.06;4198944;28;20045;-53
2023/02/17 01:05:26;;;;;;;37.80;22.73;;;;;;;3.44;60.14;95512.09;4203749;28;20055;-54
2023/02/17 01:07:41;;;;;;;44.20;22.50;;;;;;;3.53;59.04;95493.41;4204247;28;20080;-57
2023/02/17 01:09:42;;;;;;;41.90;23.27;;;;;;;3.74;59.23;95495.56;4197664;28;20080;-57
2023/02/17 01:11:44;;;;;;;48.25;23.63;;;;;;;3.92;58.62;95509.13;4186053;28;20056;-53
2023/02/17 01:13:46;;;;;;;43.50;21.90;;;;;;;4.11;57.81;95504.41;4199157;28;20532;-56
2023/02/17 01:15:50;;;;;;;42.78;22.98;;;;;;;4.21;57.42;95495.06;4187564;28;20487;-58
2023/02/17 01:17:51;;;;;;;39.00;21.15;;;;;;;4.31;57.48;95506.50;4186871;28;20060;-57
2023/02/17 01:19:53;;;;;;;43.00;21.90;;;;;;;4.36;57.07;95497.59;4199127;28;20076;-54
2023/02/17 01:21:55;;;;;;;37.78;21.05;;;;;;;4.30;57.40;95502.25;4199066;28;20064;-57
2023/02/17 01:23:58;;;;;;;47.75;22.60;;;;;;;3.92;58.29;95512.53;4198077;28;20049;-56
2023/02/17 01:26:00;;;;;;;40.60;22.25;;;;;;;3.82;58.44;95506.25;4199579;28;20071;-56
2023/02/17 01:28:02;;;;;;;37.55;21.17;;;;;;;3.87;58.89;95506.78;4200059;28;20048;-60
2023/02/17 01:30:04;;;;;;;41.67;21.33;;;;;;;3.90;58.93;95491.88;4200368;28;20422;-58
2023/02/17 01:32:06;;;;;;;41.30;22.52;;;;;;;4.02;58.57;95492.00;4187986;28;20080;-58
2023/02/17 01:34:09;;;;;;;40.95;21.77;;;;;;;4.19;57.73;95490.91;4198859;28;20076;-59
2023/02/17 01:36:13;;;;;;;38.75;21.40;;;;;;;4.36;57.04;95488.03;4189962;28;20422;-57
2023/02/17 01:38:15;;;;;;;40.55;22.75;;;;;;;4.22;56.67;95496.75;4194267;28;20067;-60
2023/02/17 01:40:19;;;;;;;40.40;22.73;;;;;;;4.13;57.46;95486.13;4195109;28;20044;-58
2023/02/17 01:42:29;;;;;;;39.10;21.20;;;;;;;4.14;57.84;95486.03;4189134;28;20055;-55
2023/02/17 01:44:31;;;;;;;42.03;23.17;;;;;;;4.24;57.60;95486.28;4198195;28;20101;-55
2023/02/17 01:46:34;;;;;;;39.35;21.48;;;;;;;4.28;56.81;95479.91;4206710;28;20683;-57
2023/02/17 01:48:48;;;;;;;39.85;21.92;;;;;;;4.38;56.99;95487.94;4197211;28;20119;-58
2023/02/17 01:50:57;;;;;;;39.80;21.80;;;;;;;4.32;56.94;95483.97;4209350;28;20051;-54
2023/02/17 01:53:01;;;;;;;43.45;22.20;;;;;;;4.05;56.98;95492.66;4212474;28;20055;-52
2023/02/17 01:55:07;;;;;;;48.42;22.23;;;;;;;3.95;57.86;95491.56;4207054;28;20053;-56
2023/02/17 01:57:10;;;;;;;40.35;22.63;;;;;;;3.96;57.97;95493.25;4187989;28;20083;-58
2023/02/17 01:59:18;;;;;;;42.53;24.47;;;;;;;3.72;57.58;95487.88;4191745;28;20052;-57
2023/02/17 02:01:20;;;;;;;43.08;23.90;;;;;;;3.69;58.67;95483.72;4207135;28;20498;-55
2023/02/17 02:03:22;;;;;;;45.83;24.25;;;;;;;3.74;58.74;95485.19;4201153;28;20095;-51
2023/02/17 02:05:28;;;;;;;46.95;23.25;;;;;;;3.79;58.79;95483.97;4195986;28;20084;-54
2023/02/17 02:07:33;;;;;;;43.22;24.17;;;;;;;3.92;58.09;95478.00;4209439;28;20052;-54
2023/02/17 02:09:43;;;;;;;46.65;23.50;;;;;;;3.96;58.26;95475.09;4204691;28;20075;-57
2023/02/17 02:11:48;;;;;;;48.30;24.63;;;;;;;3.87;58.19;95481.72;4189837;28;20410;-58
2023/02/17 02:13:50;;;;;;;42.63;22.73;;;;;;;3.78;58.81;95478.88;4202752;28;20485;-56
2023/02/17 02:16:00;;;;;;;41.90;22.30;;;;;;;3.81;59.26;95486.47;4202015;28;20149;-53
2023/02/17 02:18:30;;;;;;;42.35;22.60;;;;;;;3.76;59.14;95478.13;4200524;28;20071;-57
2023/02/17 02:21:14;;;;;;;42.40;22.30;;;;;;;3.81;59.15;95476.94;4205544;28;20071;-57
2023/02/17 02:23:50;;;;;;;38.05;21.55;;;;;;;3.85;59.36;95474.94;4194277;28;20044;-54
2023/02/17 02:26:29;;;;;;;36.88;22.35;;;;;;;3.74;58.84;95482.59;4197538;28;20063;-55
2023/02/17 02:29:09;;;;;;;37.63;20.17;;;;;;;3.66;59.64;95481.31;4202200;28;20047;-58
2023/02/17 02:31:36;;;;;;;34.50;19.45;;;;;;;3.65;59.28;95478.81;4201582;28;20048;-57
2023/02/17 02:33:59;;;;;;;36.35;20.08;;;;;;;3.40;59.80;95480.41;4201405;28;20055;-56
2023/02/17 02:36:30;;;;;;;38.05;21.95;;;;;;;3.47;60.10;95493.78;4203179;28;20052;-55
2023/02/17 02:38:46;;;;;;;38.90;18.98;;;;;;;3.52;59.18;95485.72;4187755;28;20040;-60
2023/02/17 02:41:17;;;;;;;34.25;19.15;;;;;;;3.35;60.17;95489.38;4196672;28;20049;-54
2023/02/17 02:43:23;;;;;;;38.85;20.20;;;;;;;3.21;59.83;95477.28;4202348;28;20086;-55
2023/02/17 02:45:24;;;;;;;35.45;20.10;;;;;;;3.14;60.68;95486.34;4195594;28;20071;-52
2023/02/17 02:47:45;;;;;;;37.90;19.52;;;;;;;3.17;60.70;95486.16;4184462;28;20715;-57
2023/02/17 02:49:47;;;;;;;33.08;20.40;;;;;;;3.19;60.32;95481.72;4192297;28;20087;-53
2023/02/17 02:51:56;;;;;;;35.25;20.27;;;;;;;3.14;60.25;95479.44;4191681;28;20052;-57
2023/02/17 02:54:16;;;;;;;39.05;19.75;;;;;;;3.08;60.38;95492.75;4196226;28;20040;-50
2023/02/17 02:56:43;;;;;;;38.78;19.48;;;;;;;3.09;60.55;95494.38;4178975;28;20529;-54
2023/02/17 02:58:51;;;;;;;34.42;18.77;;;;;;;3.21;60.48;95480.69;4191557;28;20059;-50
2023/02/17 03:01:02;;;;;;;33.95;19.67;;;;;;;3.12;60.43;95496.81;4181585;28;20049;-55
2023/02/17 03:03:34;;;;;;;39.30;21.17;;;;;;;3.13;60.24;95475.16;4180580;28;20110;-53
2023/02/17 03:05:45;;;;;;;43.38;20.83;;;;;;;3.10;61.17;95485.72;4185171;28;20079;-53
2023/02/17 03:07:53;;;;;;;33.80;19.13;;;;;;;3.16;60.39;95490.53;4194670;28;20113;-50
2023/02/17 03:09:56;;;;;;;34.20;19.27;;;;;;;3.17;60.75;95487.00;4185896;28;20048;-53
2023/02/17 03:11:58;;;;;;;39.72;19.23;;;;;;;3.23;60.06;95481.44;4193508;28;20044;-53
2023/02/17 03:14:07;;;;;;;39.08;20.13;;;;;;;3.34;60.41;95490.31;4184075;28;20045;-49
2023/02/17 03:16:11;;;;;;;35.47;19.77;;;;;;;3.47;59.84;95480.84;4193616;28;20059;-55
2023/02/17 03:18:16;;;;;;;36.22;18.98;;;;;;;3.51;59.34;95481.44;4197016;28;20153;-55
2023/02/17 03:20:18;;;;;;;36.47;19.13;;;;;;;3.43;59.59;95482.78;4203766;28;20501;-53
2023/02/17 03:22:32;;;;;;;38.92;19.52;;;;;;;3.49;59.10;95482.41;4202974;28;20055;-50
2023/02/17 03:24:34;;;;;;;36.85;19.90;;;;;;;3.52;59.14;95486.53;4204184;28;20044;-53
2023/02/17 03:26:38;;;;;;;33.25;18.02;;;;;;;3.50;59.30;95472.84;4193354;28;20048;-54
2023/02/17 03:28:40;;;;;;;32.92;17.42;;;;;;;3.48;58.75;95474.72;4203980;28;20302;-55
2023/02/17 03:30:42;;;;;;;39.00;19.05;;;;;;;3.47;58.87;95479.06;4193770;28;20107;-54
2023/02/17 03:32:47;;;;;;;34.58;19.55;;;;;;;3.42;59.24;95485.44;4201314;28;20131;-52
2023/02/17 03:34:49;;;;;;;33.72;18.23;;;;;;;3.14;59.53;95496.69;4186608;28;20048;-52
2023/02/17 03:36:50;;;;;;;38.42;20.02;;;;;;;2.85;60.41;95497.53;4179007;28;20745;-54
2023/02/17 03:38:52;;;;;;;48.80;21.05;;;;;;;2.66;61.23;95492.63;4184740;28;20048;-54
2023/02/17 03:40:54;;;;;;;39.72;20.27;;;;;;;2.76;61.43;95486.94;4192328;28;20501;-50
2023/02/17 03:42:56;;;;;;;39.92;19.70;;;;;;;2.91;60.93;95480.00;4195377;28;20075;-55
2023/02/17 03:44:58;;;;;;;35.33;20.05;;;;;;;3.07;60.23;95481.53;4196976;28;20041;-56
2023/02/17 03:47:00;;;;;;;40.63;19.77;;;;;;;3.10;60.27;95483.13;4199461;28;20055;-51
2023/02/17 03:49:01;;;;;;;38.35;20.17;;;;;;;3.17;60.26;95493.94;4210203;28;20542;-54
2023/02/17 03:51:32;;;;;;;42.00;22.15;;;;;;;3.12;59.98;95489.03;4212362;28;20114;-54
2023/02/17 03:53:34;;;;;;;39.70;21.38;;;;;;;3.04;60.11;95480.91;4170248;28;20041;-56
2023/02/17 03:55:35;;;;;;;41.00;20.58;;;;;;;3.09;60.17;95486.63;4193639;28;20444;-52
2023/02/17 03:57:37;;;;;;;39.40;21.52;;;;;;;3.05;60.43;95479.97;4201156;28;20048;-52
2023/02/17 03:59:38;;;;;;;42.30;21.48;;;;;;;3.11;60.73;95489.94;4195731;28;20048;-55
2023/02/17 04:01:43;;;;;;;41.67;21.90;;;;;;;3.13;60.26;95489.88;4182026;28;20128;-52
2023/02/17 04:03:45;;;;;;;40.05;21.88;;;;;;;3.19;60.13;95477.38;4186495;28;20084;-51
2023/02/17 04:05:46;;;;;;;37.78;20.75;;;;;;;3.20;60.33;95497.16;4179021;28;20060;-51
2023/02/17 04:07:48;;;;;;;40.92;21.75;;;;;;;3.20;59.90;95486.78;4178435;28;20107;-54
2023/02/17 04:09:50;;;;;;;42.53;22.73;;;;;;;3.23;59.99;95488.38;4185077;28;20063;-53
2023/02/17 04:11:55;;;;;;;41.47;21.95;;;;;;;3.29;59.84;95469.84;4195357;28;20072;-51
2023/02/17 04:13:56;;;;;;;41.38;20.60;;;;;;;3.31;59.81;95487.88;4182722;28;20507;-52
2023/02/17 04:16:00;;;;;;;47.55;21.55;;;;;;;3.39;59.37;95477.88;4178315;28;20049;-54
2023/02/17 04:18:02;;;;;;;38.55;20.95;;;;;;;3.43;59.20;95480.19;4179250;28;20053;-54
2023/02/17 04:20:05;;;;;;;39.85;21.27;;;;;;;3.48;59.10;95480.75;4189976;28;20131;-54
2023/02/17 04:22:07;;;;;;;41.92;20.67;;;;;;;3.47;59.23;95478.25;4181837;28;20063;-55
2023/02/17 04:24:09;;;;;;;37.40;20.17;;;;;;;3.54;59.56;95476.09;4194622;28;20045;-54
2023/02/17 04:26:11;;;;;;;39.35;20.88;;;;;;;3.63;58.73;95471.16;4182724;28;20049;-52
2023/02/17 04:28:13;;;;;;;38.53;21.67;;;;;;;3.62;58.83;95476.44;4192702;28;20091;-53
2023/02/17 04:30:15;;;;;;;38.47;21.98;;;;;;;3.54;58.72;95470.91;4184553;28;20147;-55
2023/02/17 04:32:17;;;;;;;39.83;22.75;;;;;;;3.41;59.09;95479.44;4186062;28;20047;-53
2023/02/17 04:34:18;;;;;;;37.25;21.63;;;;;;;3.35;59.33;95479.00;4196170;28;20072;-53
2023/02/17 04:36:24;;;;;;;39.60;21.15;;;;;;;3.30;60.02;95481.06;4186806;28;20045;-56
2023/02/17 04:38:27;;;;;;;35.72;20.42;;;;;;;3.35;60.07;95476.41;4182889;28;20086;-52
2023/02/17 04:40:29;;;;;;;39.38;20.85;;;;;;;3.46;59.55;95492.09;4188355;28;20536;-56
2023/02/17 04:42:31;;;;;;;38.60;20.05;;;;;;;3.43;58.83;95492.31;4197361;28;20093;-50
2023/02/17 04:44:32;;;;;;;40.08;20.65;;;;;;;3.38;59.08;95489.19;4198222;28;20567;-51
2023/02/17 04:46:34;;;;;;;42.40;20.23;;;;;;;3.27;59.56;95490.69;4205896;28;20074;-52
2023/02/17 04:48:45;;;;;;;36.00;20.15;;;;;;;3.30;59.26;95486.25;4208857;28;20109;-53
2023/02/17 04:50:46;;;;;;;36.83;21.02;;;;;;;3.24;59.91;95485.69;4214412;28;20048;-54
2023/02/17 04:52:48;;;;;;;39.47;19.05;;;;;;;3.35;59.93;95491.94;4214810;28;20051;-54
2023/02/17 04:54:50;;;;;;;36.95;19.95;;;;;;;3.42;59.05;95490.63;4214734;28;20079;-55
2023/02/17 04:56:52;;;;;;;35.08;18.92;;;;;;;3.48;58.79;95491.09;4200862;28;20549;-56
2023/02/17 04:58:53;;;;;;;36.47;18.95;;;;;;;3.43;59.08;95487.97;4205665;28;20135;-52
2023/02/17 05:00:59;;;;;;;38.90;18.65;;;;;;;3.40;59.38;95487.31;4185340;28;20487;-55
2023/02/17 05:03:02;;;;;;;40.42;19.08;;;;;;;3.37;59.25;95492.69;4199980;28;21548;-54
2023/02/17 05:05:03;;;;;;;37.03;18.35;;;;;;;3.42;58.68;95488.91;4207315;28;20098;-56
2023/02/17 05:07:05;;;;;;;34.70;19.02;;;;;;;3.37;59.12;95483.16;4197899;28;20048;-54
2023/02/17 05:09:10;;;;;;;30.80;19.55;;;;;;;3.33;59.40;95499.00;4184431;28;20127;-54
2023/02/17 05:11:11;;;;;;;44.90;20.00;;;;;;;3.10;59.84;95500.41;4196655;28;20538;-56
2023/02/17 05:13:13;;;;;;;38.92;20.13;;;;;;;3.06;60.70;95512.72;4196336;28;20048;-57
2023/02/17 05:15:14;;;;;;;36.60;19.15;;;;;;;3.17;60.56;95507.72;4183067;28;20581;-57
2023/02/17 05:17:16;;;;;;;37.50;19.13;;;;;;;3.27;60.10;95501.03;4199197;28;20056;-52
2023/02/17 05:19:18;;;;;;;32.05;18.35;;;;;;;3.39;59.69;95516.75;4194969;28;20047;-55
2023/02/17 05:21:19;;;;;;;36.85;19.40;;;;;;;3.46;59.61;95518.00;4198328;28;20132;-56
2023/02/17 05:23:21;;;;;;;49.70;20.33;;;;;;;3.39;58.90;95519.34;4189738;28;20053;-56
2023/02/17 05:25:23;;;;;;;37.58;19.17;;;;;;;3.26;60.25;95527.03;4193056;28;20140;-56
2023/02/17 05:27:24;;;;;;;43.75;20.88;;;;;;;3.11;60.63;95528.78;4203334;28;20083;-56
2023/02/17 05:29:26;;;;;;;39.42;20.90;;;;;;;3.19;60.74;95526.56;4197159;28;20081;-55
2023/02/17 05:31:27;;;;;;;40.22;22.15;;;;;;;3.24;60.37;95521.94;4187146;28;20080;-56
2023/02/17 05:33:29;;;;;;;40.80;21.50;;;;;;;3.33;59.87;95517.94;4209528;28;20083;-56
2023/02/17 05:35:33;;;;;;;37.63;21.00;;;;;;;3.29;60.05;95526.81;4211578;28;20443;-58
2023/02/17 05:37:35;;;;;;;36.15;20.42;;;;;;;3.19;59.83;95529.16;4209953;28;20048;-59
2023/02/17 05:39:37;;;;;;;42.67;19.52;;;;;;;3.28;60.90;95530.34;4207230;28;20052;-57
2023/02/17 05:41:39;;;;;;;39.13;19.95;;;;;;;3.49;59.99;95530.78;4197633;28;20044;-52
2023/02/17 05:43:40;;;;;;;39.47;19.08;;;;;;;3.58;58.98;95527.63;4212031;28;20044;-55
2023/02/17 05:45:42;;;;;;;36.22;20.02;;;;;;;3.45;59.74;95550.03;4209044;28;20086;-54
2023/02/17 05:47:44;;;;;;;36.28;20.88;;;;;;;3.35;60.24;95542.00;4194803;28;20529;-54
2023/02/17 05:49:48;;;;;;;38.63;21.73;;;;;;;3.31;60.07;95542.28;4187091;28;20052;-56
2023/02/17 05:51:50;;;;;;;41.33;20.70;;;;;;;3.48;60.32;95555.00;4198575;28;20422;-55
2023/02/17 05:53:51;;;;;;;37.92;20.77;;;;;;;3.54;59.67;95541.69;4184184;28;20153;-53
2023/02/17 05:55:53;;;;;;;37.53;20.50;;;;;;;3.61;59.52;95544.72;4197031;28;20048;-57
2023/02/17 05:57:59;;;;;;;38.30;20.40;;;;;;;3.70;59.40;95551.94;4213989;28;20085;-56
2023/02/17 06:00:01;;;;;;;42.13;19.88;;;;;;;3.77;58.84;95557.56;4180614;28;20045;-56
2023/02/17 06:02:03;;;;;;;35.40;18.63;;;;;;;3.82;58.82;95555.50;4178092;28;20061;-57
2023/02/17 06:04:05;;;;;;;37.30;20.10;;;;;;;3.94;59.08;95540.94;4186808;28;20072;-54
2023/02/17 06:06:06;;;;;;;35.03;19.52;;;;;;;3.85;58.55;95550.97;4200574;28;20105;-55
2023/02/17 06:08:09;;;;;;;38.20;20.83;;;;;;;3.72;59.42;95549.22;4181623;28;20041;-56
2023/02/17 06:10:10;;;;;;;41.42;20.65;;;;;;;3.77;59.60;95545.44;4189478;28;20483;-56
2023/02/17 06:12:12;;;;;;;47.42;24.63;;;;;;;3.92;59.66;95546.22;4196845;28;20067;-58
2023/02/17 06:14:14;;;;;;;40.33;21.73;;;;;;;4.12;58.96;95544.94;4197848;28;20506;-53
2023/02/17 06:16:16;;;;;;;41.50;21.60;;;;;;;4.28;58.48;95547.34;4212149;28;20048;-55
2023/02/17 06:18:17;;;;;;;36.28;20.40;;;;;;;4.40;57.16;95558.72;4213564;28;20052;-55
2023/02/17 06:20:19;;;;;;;37.65;19.45;;;;;;;4.21;58.09;95556.47;4213981;28;20052;-54
2023/02/17 06:22:21;;;;;;;38.03;21.00;;;;;;;4.06;59.18;95548.75;4199781;28;20044;-57
2023/02/17 06:24:23;;;;;;;41.78;20.42;;;;;;;4.00;59.06;95554.34;4213640;28;20085;-58
2023/02/17 06:26:25;;;;;;;35.03;21.02;;;;;;;4.10;58.73;95554.59;4213097;28;20048;-53
2023/02/17 06:28:27;;;;;;;40.15;22.50;;;;;;;4.20;59.58;95549.66;4211938;28;20048;-56
2023/02/17 06:30:28;;;;;;;37.92;22.42;;;;;;;4.16;58.45;95556.78;4201335;28;20044;-58
2023/02/17 06:32:30;;;;;;;39.85;21.35;;;;;;;4.26;58.30;95562.22;4212187;28;20409;-60
2023/02/17 06:34:32;;;;;;;35.05;20.60;;;;;;;4.39;58.49;95550.09;4213393;28;20128;-56
2023/02/17 06:36:33;;;;;;;38.50;20.70;;;;;;;4.45;57.30;95557.50;4213139;28;20424;-51
2023/02/17 06:38:35;;;;;;;43.03;21.30;;;;;;;4.54;57.19;95544.81;4206562;28;20055;-56
2023/02/17 06:40:46;;;;;;;37.50;19.80;;;;;;;4.58;57.21;95548.88;4197645;28;20079;-62
2023/02/17 06:42:48;;;;;;;33.78;19.63;;;;;;;4.64;57.09;95551.91;4203831;28;20101;-55
2023/02/17 06:44:49;;;;;;;43.05;18.95;;;;;;;4.68;55.88;95552.53;4196258;28;20044;-55
2023/02/17 06:46:51;;;;;;;36.80;19.70;;;;;;;4.70;56.66;95558.47;4198483;28;20078;-53
2023/02/17 06:48:53;;;;;;;36.28;19.48;;;;;;;4.77;56.00;95571.84;4165829;28;20115;-55
2023/02/17 06:50:55;;;;;;;33.97;19.60;;;;;;;4.89;55.53;95564.09;4180602;28;20503;-56
2023/02/17 06:52:56;;;;;;;37.55;18.92;;;;;;;4.95;55.79;95560.25;4192716;28;20048;-55
2023/02/17 06:55:01;;;;;;;33.17;18.15;;;;;;;5.04;55.33;95561.38;4186580;28;20094;-56
2023/02/17 06:57:03;;;;;;;33.85;19.88;;;;;;;5.19;55.00;95567.31;4192702;28;20056;-56
2023/02/17 06:59:07;;;;;;;38.85;19.33;;;;;;;5.26;54.80;95566.78;4187076;28;20044;-55
2023/02/17 07:01:18;;;;;;;40.33;21.08;;;;;;;5.24;55.29;95560.84;4193166;28;20062;-58
2023/02/17 07:03:20;;;;;;;41.20;22.60;;;;;;;5.45;55.41;95562.91;4204224;28;20044;-57
2023/02/17 07:05:22;;;;;;;39.35;20.63;;;;;;;5.44;54.23;95566.44;4207964;28;20534;-54
2023/02/17 07:07:23;;;;;;;40.80;21.02;;;;;;;5.43;54.31;95567.38;4199531;28;20410;-52
2023/02/17 07:09:25;;;;;;;37.05;21.30;;;;;;;5.52;54.56;95564.13;4189933;28;20051;-57
2023/02/17 07:11:30;;;;;;;38.63;20.27;;;;;;;5.57;55.07;95569.00;4212927;28;20097;-54
2023/02/17 07:13:31;;;;;;;37.75;21.00;;;;;;;5.69;54.07;95569.00;4200996;28;20185;-53
2023/02/17 07:15:33;;;;;;;38.63;21.00;;;;;;;5.79;53.79;95565.75;4200951;28;20162;-55
2023/02/17 07:17:35;;;;;;;44.10;22.15;;;;;;;5.84;53.11;95568.84;4202189;28;20048;-57
2023/02/17 07:19:37;;;;;;;35.67;21.30;;;;;;;5.95;53.27;95574.16;4208550;28;20478;-53
2023/02/17 07:21:48;;;;;;;48.63;21.63;;;;;;;6.08;52.99;95579.31;4190776;28;20040;-62
2023/02/17 07:23:49;;;;;;;39.85;20.05;;;;;;;6.18;52.47;95574.28;4190484;28;20130;-58
2023/02/17 07:25:51;;;;;;;40.10;21.08;;;;;;;6.18;52.14;95575.09;4199618;28;20040;-62
2023/02/17 07:27:53;;;;;;;40.00;21.20;;;;;;;6.22;51.66;95583.53;4192835;28;20045;-60
2023/02/17 07:29:58;;;;;;;41.45;22.00;;;;;;;6.27;51.71;95584.03;4193243;28;20553;-60
2023/02/17 07:32:06;;;;;;;46.33;22.60;;;;;;;6.21;52.00;95582.69;4198213;28;20433;-60
2023/02/17 07:34:08;;;;;;;36.17;20.65;;;;;;;6.21;51.90;95579.25;4202411;28;20040;-60
2023/02/17 07:36:14;;;;;;;39.42;21.92;;;;;;;6.29;52.38;95582.97;4197702;28;20044;-62
2023/02/17 07:38:16;;;;;;;45.03;22.02;;;;;;;6.50;51.65;95584.97;4206570;28;20559;-60
2023/02/17 07:40:18;;;;;;;35.75;20.10;;;;;;;6.64;50.79;95582.16;4197424;28;20052;-60
2023/02/17 07:42:19;;;;;;;38.85;22.17;;;;;;;6.35;51.86;95581.69;4190665;28;20067;-61
2023/02/17 07:44:21;;;;;;;37.38;19.48;;;;;;;6.25;52.18;95589.31;4197700;28;20064;-61
2023/02/17 07:46:23;;;;;;;36.90;20.50;;;;;;;6.29;51.76;95600.34;4200621;28;20093;-60
2023/02/17 07:48:25;;;;;;;34.72;19.83;;;;;;;6.55;51.17;95581.06;4205454;28;20135;-59
2023/02/17 07:50:27;;;;;;;46.80;21.55;;;;;;;6.75;50.57;95583.97;4187065;28;20544;-61
2023/02/17 07:52:29;;;;;;;40.42;20.27;;;;;;;7.01;50.31;95589.00;4212224;28;20051;-61
2023/02/17 07:54:30;;;;;;;35.33;21.50;;;;;;;7.11;49.59;95585.59;4205654;28;20482;-60
2023/02/17 07:56:32;;;;;;;37.72;21.27;;;;;;;6.98;49.96;95585.69;4203928;28;20063;-61
2023/02/17 07:58:36;;;;;;;35.03;21.00;;;;;;;6.83;50.73;95580.81;4205925;28;20414;-60
2023/02/17 08:00:37;;;;;;;47.08;22.20;;;;;;;6.81;51.06;95580.91;4200089;28;20072;-61
2023/02/17 08:02:39;;;;;;;42.85;20.13;;;;;;;7.16;50.41;95578.28;4207598;28;20154;-60
2023/02/17 08:04:41;;;;;;;32.20;20.13;;;;;;;7.44;48.95;95585.72;4211713;28;20040;-57
2023/02/17 08:06:45;;;;;;;37.70;20.98;;;;;;;7.73;48.67;95581.69;4207774;28;20048;-61
2023/02/17 08:13:33;;;;;;;40.45;21.25;;;;;;;8.30;47.29;95578.97;4212556;28;20135;-61
2023/02/17 08:15:35;;;;;;;46.80;22.75;;;;;;;8.44;46.99;95580.53;4184061;28;20048;-61
2023/02/17 08:17:37;;;;;;;54.20;26.67;;;;;;;8.35;47.38;95571.63;4177628;28;20053;-61
2023/02/17 08:19:39;;;;;;;48.55;26.08;;;;;;;8.33;47.49;95579.56;4179274;28;20094;-61
2023/02/17 08:21:49;;;;;;;49.83;25.35;;;;;;;8.61;47.37;95577.38;4179439;28;20135;-62
2023/02/17 08:23:51;;;;;;;65.72;28.70;;;;;;;8.90;47.29;95568.91;4181462;28;20056;-62
2023/02/17 08:25:56;;;;;;;54.65;27.45;;;;;;;8.95;46.37;95567.56;4189527;28;20052;-60
2023/02/17 08:27:58;;;;;;;57.67;29.17;;;;;;;8.94;46.74;95570.31;4179284;28;20457;-63
2023/02/17 08:30:03;;;;;;;68.47;30.48;;;;;;;8.89;46.54;95565.47;4206298;28;20102;-62
2023/02/17 08:32:05;;;;;;;81.72;32.80;;;;;;;8.86;46.56;95564.88;4210577;28;20071;-61
2023/02/17 08:34:09;;;;;;;68.28;32.17;;;;;;;9.12;46.37;95560.94;4204906;28;20627;-61
2023/02/17 08:36:11;;;;;;;43.20;24.52;;;;;;;8.96;46.09;95563.16;4206654;28;20691;-62
2023/02/17 08:38:12;;;;;;;45.42;25.80;;;;;;;9.05;46.13;95561.56;4202547;28;20112;-63
2023/02/17 08:40:15;;;;;;;57.17;27.52;;;;;;;9.21;46.54;95557.56;4209226;28;20422;-62
2023/02/17 08:42:18;;;;;;;42.15;22.38;;;;;;;9.41;45.33;95555.03;4195936;28;20398;-59
2023/02/17 08:44:21;;;;;;;54.88;24.92;;;;;;;9.59;44.81;95560.47;4212237;28;20075;-62
2023/02/17 08:46:22;;;;;;;49.15;25.05;;;;;;;9.83;44.64;95558.34;4204307;28;20127;-59
2023/02/17 08:48:24;;;;;;;77.47;32.63;;;;;;;10.07;43.72;95554.56;4204861;28;20508;-59
2023/02/17 08:50:26;;;;;;;46.88;22.25;;;;;;;10.25;42.54;95557.34;4212491;28;20378;-59
2023/02/17 08:52:28;;;;;;;33.05;14.30;;;;;;;10.35;39.46;95554.78;4211859;28;20429;-59
2023/02/17 08:54:30;;;;;;;21.15;10.82;;;;;;;10.41;38.88;95548.97;4212183;28;20062;-60
2023/02/17 08:56:33;;;;;;;21.33;8.75;;;;;;;10.50;37.59;95545.53;4201515;28;20494;-60
2023/02/17 08:58:35;;;;;;;20.80;9.77;;;;;;;10.80;37.42;95548.97;4201845;28;20056;-62
2023/02/17 09:00:37;;;;;;;17.83;8.23;;;;;;;10.96;36.35;95554.47;4189623;28;20094;-62
2023/02/17 09:02:41;;;;;;;13.07;8.38;;;;;;;10.90;36.24;95555.00;4188411;28;20123;-61
2023/02/17 09:04:43;;;;;;;20.15;9.35;;;;;;;11.09;36.22;95556.78;4196502;28;20583;-61
2023/02/17 09:06:49;;;;;;;16.50;7.85;;;;;;;11.19;35.77;95554.97;4196566;28;20483;-61
2023/02/17 09:08:50;;;;;;;13.50;7.47;;;;;;;11.17;35.18;95562.16;4189813;28;20049;-61
2023/02/17 09:10:52;;;;;;;11.77;7.00;;;;;;;11.20;35.26;95551.38;4209851;28;20645;-60
2023/02/17 09:12:54;;;;;;;20.70;8.15;;;;;;;11.40;35.31;95551.31;4215047;28;20044;-61
2023/02/17 09:14:55;;;;;;;13.55;7.78;;;;;;;11.64;34.48;95550.84;4214483;28;20094;-59
2023/02/17 09:16:57;;;;;;;13.45;7.50;;;;;;;11.52;34.32;95546.72;4213443;28;20060;-62
2023/02/17 09:19:02;;;;;;;15.43;7.43;;;;;;;11.53;34.22;95549.22;4214267;28;20043;-60
2023/02/17 09:21:09;;;;;;;14.05;7.57;;;;;;;11.62;34.22;95545.72;4214916;28;20048;-58
2023/02/17 09:23:11;;;;;;;19.63;8.23;;;;;;;11.75;33.88;95555.88;4215146;28;20071;-55
2023/02/17 09:25:12;;;;;;;12.90;7.15;;;;;;;11.61;33.82;95545.84;4213677;28;20097;-58
2023/02/17 09:27:14;;;;;;;15.73;7.22;;;;;;;11.42;34.22;95550.22;4201632;28;20048;-57
2023/02/17 09:29:19;;;;;;;16.02;7.32;;;;;;;11.50;34.04;95546.88;4214762;28;20051;-56
2023/02/17 09:31:23;;;;;;;14.77;8.10;;;;;;;11.62;34.14;95553.59;4213315;28;20044;-55
2023/02/17 09:33:25;;;;;;;12.70;6.55;;;;;;;11.79;34.11;95551.19;4214505;28;20052;-58
2023/02/17 09:35:27;;;;;;;17.15;7.55;;;;;;;11.81;34.17;95562.38;4209061;28;20037;-56
2023/02/17 09:37:29;;;;;;;14.15;6.07;;;;;;;11.88;33.56;95548.53;4189354;28;20631;-56
2023/02/17 09:39:31;;;;;;;17.55;5.50;;;;;;;12.04;33.05;95547.88;4182069;28;20049;-61
2023/02/17 09:41:40;;;;;;;9.82;5.45;;;;;;;12.32;33.22;95542.59;4190493;28;20048;-60